createdAt,value
2023-01-08T05:13:31.322Z,13.20
2023-01-08T05:28:35.803Z,13.40
2023-01-08T05:43:40.272Z,13.20
2023-01-08T05:58:44.740Z,12.70
2023-01-08T06:13:49.201Z,12.50
2023-01-08T06:28:53.787Z,12.70
2023-01-08T06:43:58.295Z,12.60
2023-01-08T06:59:02.738Z,13.00
2023-01-08T07:14:07.164Z,12.60
2023-01-08T07:29:11.694Z,13.00
2023-01-08T07:44:16.110Z,12.70
2023-01-08T07:59:20.495Z,13.40
2023-01-08T08:14:24.901Z,13.40
2023-01-08T08:29:29.271Z,13.70
2023-01-08T08:44:34.028Z,13.30
2023-01-08T08:59:38.740Z,13.50
2023-01-08T09:14:44.416Z,13.10
2023-01-08T09:29:48.847Z,13.30
2023-01-08T09:44:56.476Z,13.20
2023-01-08T10:00:01.041Z,13.40
2023-01-08T10:15:10.154Z,13.20
2023-01-08T10:30:18.012Z,13.30
2023-01-08T10:45:25.709Z,13.10
2023-01-08T11:00:31.996Z,13.50
2023-01-08T11:15:39.181Z,13.60
2023-01-08T11:30:48.440Z,13.50
2023-01-08T11:46:10.365Z,14.00
2023-01-08T12:01:36.127Z,13.60
2023-01-08T12:16:57.567Z,14.00
2023-01-08T12:32:23.676Z,14.20
2023-01-08T12:47:33.745Z,14.00
2023-01-08T13:02:51.345Z,14.60
2023-01-08T13:17:58.095Z,13.80
2023-01-08T13:33:02.893Z,14.30
2023-01-08T13:48:07.693Z,15.00
2023-01-08T14:03:24.364Z,14.50
2023-01-08T14:18:29.694Z,14.10
2023-01-08T14:33:36.570Z,14.10
2023-01-08T14:48:45.985Z,14.00
2023-01-08T15:03:52.341Z,14.30
2023-01-08T15:19:02.685Z,14.20
2023-01-08T15:34:09.850Z,14.30
2023-01-08T15:49:14.371Z,14.10
2023-01-08T16:04:18.842Z,14.40
2023-01-08T16:19:25.023Z,14.20
2023-01-08T16:34:29.574Z,14.10
2023-01-08T16:49:35.895Z,14.10
2023-01-08T17:04:40.499Z,13.90
2023-01-08T17:19:45.077Z,13.50
2023-01-08T17:34:49.605Z,13.40
2023-01-08T17:49:55.463Z,13.70
2023-01-08T18:04:59.971Z,13.40
2023-01-08T18:20:04.793Z,13.00
2023-01-08T18:35:11.742Z,13.20
2023-01-08T18:50:16.571Z,13.50
2023-01-08T19:05:21.389Z,12.90
2023-01-08T19:20:25.774Z,12.80
2023-01-08T19:35:31.443Z,13.20
2023-01-08T19:50:38.842Z,12.80
2023-01-08T20:05:44.366Z,12.90
2023-01-08T20:20:48.927Z,12.60
2023-01-08T20:35:53.397Z,12.30
2023-01-08T20:50:59.566Z,12.10
2023-01-08T21:06:06.811Z,12.10
